createdAt,value
2022-11-24T00:01:27.361Z,63.50
2022-11-24T00:04:27.397Z,62.70
2022-11-24T00:05:27.377Z,62.70
2022-11-24T00:06:27.381Z,62.65
2022-11-24T00:07:27.457Z,62.60
2022-11-24T00:08:27.378Z,62.60
2022-11-24T00:09:27.393Z,62.60
2022-11-24T00:11:27.400Z,63.71
2022-11-24T00:12:27.431Z,63.55
2022-11-24T00:13:27.414Z,63.42
2022-11-24T00:14:27.404Z,63.42
2022-11-24T00:15:27.426Z,63.12
2022-11-24T00:16:27.467Z,63.21
2022-11-24T00:17:27.471Z,63.18
2022-11-24T00:18:27.435Z,63.02
2022-11-24T00:19:27.434Z,63.15
2022-11-24T00:21:27.431Z,63.23
2022-11-24T00:23:27.444Z,63.40
2022-11-24T00:24:27.420Z,63.40
2022-11-24T00:25:27.470Z,63.23
2022-11-24T00:27:27.460Z,63.10
2022-11-24T00:29:27.467Z,62.98
2022-11-24T00:30:27.521Z,63.35
2022-11-24T00:31:27.545Z,63.35
2022-11-24T00:32:27.438Z,63.45
2022-11-24T00:33:27.467Z,63.41
2022-11-24T00:34:27.472Z,63.36
2022-11-24T00:36:27.446Z,63.87
2022-11-24T00:37:27.473Z,63.10
2022-11-24T00:38:27.490Z,63.23
2022-11-24T00:39:27.450Z,63.23
2022-11-24T00:40:32.108Z,63.30
2022-11-24T00:41:27.478Z,63.30
2022-11-24T00:42:27.475Z,63.17
2022-11-24T00:43:27.511Z,63.34
2022-11-24T00:44:27.485Z,63.23
2022-11-24T00:45:27.468Z,63.08
2022-11-24T00:46:27.552Z,63.68
2022-11-24T00:47:27.497Z,63.60
2022-11-24T00:48:27.532Z,63.51
2022-11-24T00:51:27.494Z,63.16
2022-11-24T00:52:27.507Z,62.90
2022-11-24T00:53:27.523Z,63.14
2022-11-24T00:54:27.505Z,63.14
2022-11-24T00:55:27.510Z,62.79
2022-11-24T00:56:27.545Z,62.84
2022-11-24T00:57:27.486Z,62.84
2022-11-24T00:58:27.534Z,62.83
2022-11-24T00:59:27.503Z,62.85
2022-11-24T01:00:27.524Z,63.06
2022-11-24T01:02:27.551Z,62.88
2022-11-24T01:03:27.554Z,62.98
2022-11-24T01:05:27.537Z,62.96
2022-11-24T01:06:27.551Z,63.09
2022-11-24T01:07:27.596Z,63.09
2022-11-24T01:08:27.573Z,62.73
2022-11-24T01:09:28.832Z,63.06
2022-11-24T01:10:27.536Z,63.27
2022-11-24T01:11:27.569Z,63.07
2022-11-24T01:12:27.544Z,63.07
2022-11-24T01:13:27.601Z,63.12
2022-11-24T01:14:27.559Z,63.06
2022-11-24T01:16:27.644Z,63.40
2022-11-24T01:17:27.567Z,63.40
2022-11-24T01:18:27.611Z,63.86
2022-11-24T01:19:27.550Z,63.86
2022-11-24T01:20:27.549Z,63.80
2022-11-24T01:21:27.597Z,63.75
2022-11-24T01:22:27.559Z,63.75
2022-11-24T01:23:27.603Z,63.90
2022-11-24T01:25:27.583Z,63.88
2022-11-24T01:26:27.619Z,63.72
2022-11-24T01:27:27.563Z,63.72
2022-11-24T01:28:27.627Z,63.89
2022-11-24T01:29:27.589Z,63.89
2022-11-24T01:31:27.714Z,63.61
2022-11-24T01:33:27.660Z,63.72
2022-11-24T01:34:27.609Z,63.69
2022-11-24T01:35:27.606Z,63.69
2022-11-24T01:36:27.644Z,63.99
2022-11-24T01:37:27.615Z,63.99
2022-11-24T01:38:27.610Z,63.99
2022-11-24T01:39:27.609Z,64.30
2022-11-24T01:40:27.613Z,64.44
2022-11-24T01:41:27.627Z,64.41
2022-11-24T01:42:27.633Z,64.41
2022-11-24T01:43:27.624Z,64.25
2022-11-24T01:44:27.621Z,64.25
2022-11-24T01:45:27.611Z,64.08
2022-11-24T01:46:27.712Z,64.22
2022-11-24T01:48:28.001Z,64.33
2022-11-24T01:49:27.649Z,64.23
2022-11-24T01:50:27.623Z,64.23
2022-11-24T01:51:27.670Z,64.28
2022-11-24T01:52:27.654Z,64.47
2022-11-24T01:54:27.703Z,64.49
2022-11-24T01:55:27.667Z,64.72
2022-11-24T01:56:27.686Z,64.87
2022-11-24T01:57:27.657Z,64.87
2022-11-24T01:59:27.696Z,65.06
2022-11-24T02:00:27.680Z,65.06
2022-11-24T02:01:27.812Z,65.08
2022-11-24T02:02:27.693Z,65.18
2022-11-24T02:03:27.655Z,65.57
2022-11-24T02:04:27.703Z,65.96
2022-11-24T02:05:27.662Z,65.96
2022-11-24T02:06:27.737Z,66.10
2022-11-24T02:07:27.735Z,66.10
2022-11-24T02:08:27.679Z,66.01
2022-11-24T02:09:27.718Z,66.03
2022-11-24T02:10:27.679Z,66.03
2022-11-24T02:11:27.752Z,66.01
2022-11-24T02:13:27.668Z,65.92
2022-11-24T02:14:27.728Z,65.90
2022-11-24T02:15:27.679Z,65.90
2022-11-24T02:16:27.694Z,65.70
2022-11-24T02:17:27.710Z,65.79
2022-11-24T02:18:27.717Z,65.99
2022-11-24T02:19:27.763Z,66.03
2022-11-24T02:20:27.697Z,66.03
2022-11-24T02:21:27.736Z,65.99
2022-11-24T02:23:27.732Z,65.70
2022-11-24T02:24:27.752Z,65.86
2022-11-24T02:25:27.712Z,65.86
2022-11-24T02:26:27.733Z,65.91
2022-11-24T02:27:27.746Z,66.09
2022-11-24T02:28:27.738Z,66.09
2022-11-24T02:30:27.739Z,66.13
2022-11-24T02:31:27.806Z,65.99
2022-11-24T02:32:27.717Z,65.83
2022-11-24T02:33:27.744Z,65.72
2022-11-24T02:34:27.761Z,65.49
2022-11-24T02:35:27.744Z,65.41
2022-11-24T02:36:27.747Z,65.19
2022-11-24T02:37:27.771Z,64.89
2022-11-24T02:38:27.745Z,64.89
2022-11-24T02:39:27.742Z,64.84
2022-11-24T02:40:27.818Z,64.78
2022-11-24T02:41:27.763Z,64.78
2022-11-24T02:42:27.768Z,64.81
2022-11-24T02:43:27.748Z,64.81
2022-11-24T02:44:27.802Z,64.59
2022-11-24T02:45:27.806Z,64.66
2022-11-24T02:46:27.860Z,64.66
2022-11-24T02:47:27.788Z,64.39
2022-11-24T02:48:27.801Z,64.29
2022-11-24T02:49:27.756Z,64.29
2022-11-24T02:51:27.841Z,64.40
2022-11-24T02:52:27.784Z,64.44
2022-11-24T02:54:27.823Z,64.39
2022-11-24T02:56:27.792Z,64.43
2022-11-24T02:57:27.843Z,64.48
2022-11-24T02:58:27.836Z,64.49
2022-11-24T02:59:27.829Z,64.49
2022-11-24T03:00:27.821Z,64.54
2022-11-24T03:01:27.870Z,64.47
2022-11-24T03:02:27.902Z,64.36
2022-11-24T03:03:27.860Z,64.11
2022-11-24T03:04:27.821Z,64.11
2022-11-24T03:05:27.815Z,63.98
2022-11-24T03:06:27.849Z,63.98
2022-11-24T03:07:27.921Z,63.76
2022-11-24T03:08:27.853Z,63.77
2022-11-24T03:09:28.206Z,63.82
2022-11-24T03:10:27.843Z,63.82
2022-11-24T03:11:27.878Z,63.75
2022-11-24T03:12:27.835Z,63.75
2022-11-24T03:13:27.904Z,63.66
2022-11-24T03:14:27.864Z,63.66
2022-11-24T03:15:27.884Z,63.30
2022-11-24T03:16:27.950Z,63.29
2022-11-24T03:17:27.861Z,63.29
2022-11-24T03:18:27.868Z,63.29
2022-11-24T03:19:27.872Z,63.12
2022-11-24T03:20:27.858Z,63.12
2022-11-24T03:21:27.901Z,63.02
2022-11-24T03:22:27.854Z,63.02
2022-11-24T03:24:27.844Z,62.91
2022-11-24T03:25:27.874Z,62.90
2022-11-24T03:26:27.911Z,62.87
2022-11-24T03:27:27.859Z,62.94
2022-11-24T03:29:27.870Z,63.10
2022-11-24T03:33:27.937Z,63.01
2022-11-24T03:34:27.897Z,63.01
2022-11-24T03:35:27.923Z,62.81
2022-11-24T03:36:27.911Z,62.80
2022-11-24T03:37:27.906Z,62.72
2022-11-24T03:39:27.905Z,63.02
2022-11-24T03:40:27.890Z,62.89
2022-11-24T03:41:27.914Z,62.86
2022-11-24T03:42:27.920Z,62.90
2022-11-24T03:43:27.950Z,62.97
2022-11-24T03:45:45.405Z,62.93
2022-11-24T03:46:27.983Z,62.92
2022-11-24T03:47:27.907Z,62.92
2022-11-24T03:48:27.964Z,62.79
2022-11-24T03:49:27.926Z,62.79
2022-11-24T03:50:27.945Z,62.71
2022-11-24T03:52:27.924Z,62.74
2022-11-24T03:53:27.973Z,62.78
2022-11-24T03:54:27.952Z,62.91
2022-11-24T03:57:27.981Z,62.86
2022-11-24T03:58:27.977Z,62.80
2022-11-24T04:01:28.009Z,62.89
2022-11-24T04:02:28.033Z,62.83
2022-11-24T04:03:28.015Z,62.94
2022-11-24T04:04:27.966Z,62.94
2022-11-24T04:05:27.971Z,62.94
2022-11-24T04:06:27.994Z,62.86
2022-11-24T04:07:28.052Z,62.86
2022-11-24T04:08:27.988Z,62.73
2022-11-24T04:11:28.040Z,62.88
2022-11-24T04:12:27.975Z,62.88
2022-11-24T04:14:28.026Z,62.69
2022-11-24T04:16:28.103Z,62.73
2022-11-24T04:17:28.008Z,62.73
2022-11-24T04:19:27.979Z,62.66
2022-11-24T04:20:27.984Z,62.54
2022-11-24T04:22:28.014Z,62.52
2022-11-24T04:23:28.046Z,62.56
2022-11-24T04:24:28.012Z,62.42
2022-11-24T04:28:28.013Z,62.44
2022-11-24T04:29:28.023Z,62.60
2022-11-24T04:30:28.033Z,62.60
2022-11-24T04:31:28.114Z,62.30
2022-11-24T04:32:28.029Z,62.30
2022-11-24T04:33:28.049Z,62.28
2022-11-24T04:34:28.019Z,62.28
2022-11-24T04:35:28.042Z,62.45
2022-11-24T04:36:28.076Z,62.23
2022-11-24T04:37:28.038Z,62.23
2022-11-24T04:39:25.005Z,62.24
2022-11-24T04:39:28.848Z,61.98
2022-11-24T04:40:28.046Z,61.98
2022-11-24T04:41:28.086Z,62.16
2022-11-24T04:42:28.072Z,62.22
2022-11-24T04:43:28.069Z,62.22
2022-11-24T04:44:28.081Z,62.00
2022-11-24T04:45:28.094Z,62.03
2022-11-24T04:46:28.161Z,62.18
2022-11-24T04:47:28.080Z,62.26
2022-11-24T04:48:28.069Z,62.29
2022-11-24T04:49:28.100Z,62.29
2022-11-24T04:50:28.086Z,62.17
2022-11-24T04:52:28.083Z,62.06
2022-11-24T04:53:28.058Z,61.94
2022-11-24T04:54:28.104Z,61.99
2022-11-24T04:55:28.075Z,61.99
2022-11-24T04:56:28.113Z,61.79
2022-11-24T04:57:28.069Z,61.79
2022-11-24T04:58:28.093Z,61.70
2022-11-24T04:59:28.114Z,62.02
2022-11-24T05:01:28.234Z,61.64
2022-11-24T05:04:28.226Z,61.76
2022-11-24T05:05:28.108Z,61.76
2022-11-24T05:07:28.158Z,61.69
2022-11-24T05:08:28.134Z,61.94
2022-11-24T05:09:42.001Z,61.91
2022-11-24T05:10:28.109Z,61.91
2022-11-24T05:11:28.130Z,62.00
2022-11-24T05:12:28.161Z,62.00
2022-11-24T05:13:28.123Z,61.80
2022-11-24T05:14:28.189Z,61.71
2022-11-24T05:15:28.175Z,61.71
2022-11-24T05:16:28.251Z,61.78
2022-11-24T05:17:28.182Z,61.85
2022-11-24T05:18:28.193Z,61.86
2022-11-24T05:19:31.218Z,61.85
2022-11-24T05:20:28.177Z,61.85
2022-11-24T05:21:28.168Z,61.80
2022-11-24T05:22:28.186Z,61.67
2022-11-24T05:24:28.190Z,61.58
2022-11-24T05:26:28.211Z,61.72
2022-11-24T05:27:28.217Z,61.63
2022-11-24T05:28:28.150Z,61.63
2022-11-24T05:30:28.174Z,61.45
2022-11-24T05:32:28.217Z,61.38
2022-11-24T05:33:28.193Z,61.25
2022-11-24T05:35:28.220Z,61.20
2022-11-24T05:36:28.168Z,61.20
2022-11-24T05:39:28.227Z,61.20
2022-11-24T05:41:28.223Z,61.08
2022-11-24T05:42:28.254Z,61.10
2022-11-24T05:43:28.235Z,60.90
2022-11-24T05:44:28.243Z,60.90
2022-11-24T05:45:28.232Z,60.88
2022-11-24T05:46:28.321Z,60.95
2022-11-24T05:48:28.205Z,61.04
2022-11-24T05:49:28.214Z,60.96
2022-11-24T05:50:28.257Z,60.78
2022-11-24T05:51:28.225Z,60.68
2022-11-24T05:52:28.303Z,60.72
2022-11-24T05:53:28.254Z,60.72
2022-11-24T05:54:28.270Z,60.42
2022-11-24T05:55:28.273Z,60.47
2022-11-24T05:57:28.258Z,60.20
2022-11-24T05:58:28.266Z,60.20
2022-11-24T05:59:28.269Z,60.34
2022-11-24T06:00:28.307Z,60.55
2022-11-24T06:01:28.371Z,60.55
2022-11-24T06:02:28.420Z,60.59
2022-11-24T06:03:28.297Z,60.55
2022-11-24T06:04:28.253Z,60.45
2022-11-24T06:05:28.319Z,60.63
2022-11-24T06:06:28.294Z,60.65
2022-11-24T06:07:28.394Z,60.45
2022-11-24T06:08:31.247Z,60.45
2022-11-24T06:09:28.258Z,60.38
2022-11-24T06:10:28.299Z,60.39
2022-11-24T06:11:28.277Z,60.25
2022-11-24T06:12:28.273Z,60.25
2022-11-24T06:14:28.275Z,59.97
2022-11-24T06:15:28.343Z,60.04
2022-11-24T06:16:28.387Z,60.04
2022-11-24T06:17:28.317Z,59.93
2022-11-24T06:18:28.315Z,59.82
2022-11-24T06:19:28.308Z,59.95
2022-11-24T06:20:32.332Z,60.25
2022-11-24T06:21:28.285Z,60.25
2022-11-24T06:22:28.322Z,60.54
2022-11-24T06:23:28.322Z,60.46
2022-11-24T06:24:28.321Z,60.30
2022-11-24T06:25:28.341Z,59.99
2022-11-24T06:26:28.307Z,59.77
2022-11-24T06:27:28.339Z,59.71
2022-11-24T06:28:28.304Z,59.57
2022-11-24T06:29:28.343Z,59.57
2022-11-24T06:31:28.380Z,59.50
2022-11-24T06:32:28.320Z,59.42
2022-11-24T06:33:28.353Z,59.46
2022-11-24T06:34:28.317Z,59.46
2022-11-24T06:35:28.352Z,59.39
2022-11-24T06:38:28.351Z,59.63
2022-11-24T06:40:28.365Z,59.52
2022-11-24T06:41:28.331Z,59.52
2022-11-24T06:42:28.413Z,59.64
2022-11-24T06:44:28.396Z,59.70
2022-11-24T06:45:28.414Z,59.48
2022-11-24T06:46:28.357Z,59.48
2022-11-24T06:47:28.390Z,59.69
2022-11-24T06:49:28.387Z,59.55
2022-11-24T06:50:33.460Z,59.57
2022-11-24T06:51:28.404Z,59.57
2022-11-24T06:53:28.410Z,59.38
2022-11-24T06:54:28.402Z,59.51
2022-11-24T06:55:28.535Z,59.55
2022-11-24T06:56:28.386Z,59.67
2022-11-24T06:57:28.403Z,59.93
2022-11-24T06:58:28.520Z,59.92
2022-11-24T06:59:28.397Z,59.83
2022-11-24T07:01:28.525Z,59.83
2022-11-24T07:02:28.391Z,59.87
2022-11-24T07:03:28.440Z,59.85
2022-11-24T07:04:28.447Z,59.89
2022-11-24T07:05:28.466Z,59.87
2022-11-24T07:06:28.460Z,59.52
2022-11-24T07:09:28.452Z,59.29
2022-11-24T07:10:28.481Z,59.60
2022-11-24T07:11:28.428Z,59.60
2022-11-24T07:12:28.446Z,59.32
2022-11-24T07:13:28.462Z,59.16
2022-11-24T07:14:28.419Z,59.37
2022-11-24T07:15:28.486Z,59.46
2022-11-24T07:16:28.494Z,59.41
2022-11-24T07:17:28.412Z,59.41
2022-11-24T07:18:28.466Z,59.27
2022-11-24T07:19:28.465Z,59.36
2022-11-24T07:20:28.433Z,59.26
2022-11-24T07:21:28.513Z,59.32
2022-11-24T07:24:28.459Z,59.20
2022-11-24T07:26:28.482Z,59.46
2022-11-24T07:27:28.511Z,59.24
2022-11-24T07:28:28.520Z,59.26
2022-11-24T07:29:28.451Z,59.09
2022-11-24T07:30:28.673Z,59.09
2022-11-24T07:31:28.542Z,59.21
2022-11-24T07:32:28.476Z,59.58
2022-11-24T07:33:28.543Z,59.72
2022-11-24T07:34:28.453Z,59.72
2022-11-24T07:35:28.471Z,59.85
2022-11-24T07:36:28.539Z,60.01
2022-11-24T07:37:31.531Z,60.01
2022-11-24T07:38:28.479Z,59.83
2022-11-24T07:39:28.479Z,59.82
2022-11-24T07:40:28.495Z,59.77
2022-11-24T07:41:28.554Z,59.66
2022-11-24T07:42:28.661Z,59.66
2022-11-24T07:43:28.501Z,59.55
2022-11-24T07:44:28.479Z,59.55
2022-11-24T07:45:28.563Z,59.58
2022-11-24T07:46:28.660Z,59.43
2022-11-24T07:47:28.541Z,59.19
2022-11-24T07:48:28.689Z,59.19
2022-11-24T07:49:28.535Z,58.88
2022-11-24T07:50:28.554Z,58.74
2022-11-24T07:51:28.580Z,58.75
2022-11-24T07:52:28.545Z,58.75
2022-11-24T07:53:28.605Z,58.58
2022-11-24T07:54:28.602Z,58.16
2022-11-24T07:55:28.519Z,58.16
2022-11-24T07:56:28.597Z,57.92
2022-11-24T07:57:28.537Z,57.78
2022-11-24T07:58:32.388Z,57.64
2022-11-24T07:59:28.570Z,57.56
2022-11-24T08:00:28.571Z,57.56
2022-11-24T08:01:28.612Z,56.85
2022-11-24T08:02:28.567Z,56.85
2022-11-24T08:03:28.737Z,56.62
2022-11-24T08:05:28.597Z,56.55
2022-11-24T08:06:32.556Z,56.20
2022-11-24T08:07:28.616Z,56.30
2022-11-24T08:08:28.593Z,56.35
2022-11-24T08:09:28.576Z,56.53
2022-11-24T08:10:28.566Z,56.53
2022-11-24T08:11:28.612Z,57.01
2022-11-24T08:12:28.609Z,57.60
2022-11-24T08:13:28.562Z,58.09
2022-11-24T08:14:28.597Z,58.59
2022-11-24T08:15:28.571Z,58.59
2022-11-24T08:16:28.691Z,59.02
2022-11-24T08:17:28.615Z,60.01
2022-11-24T08:18:28.616Z,60.01
2022-11-24T08:20:28.632Z,60.58
2022-11-24T08:22:28.646Z,61.23
2022-11-24T08:23:28.577Z,61.23
2022-11-24T08:24:28.577Z,61.27
2022-11-24T08:25:28.670Z,61.60
2022-11-24T08:26:28.613Z,61.60
2022-11-24T08:27:28.664Z,62.17
2022-11-24T08:28:28.633Z,62.17
2022-11-24T08:29:28.631Z,62.46
2022-11-24T08:30:28.634Z,62.68
2022-11-24T08:31:28.642Z,62.68
2022-11-24T08:32:28.636Z,62.89
2022-11-24T08:33:28.648Z,62.89
2022-11-24T08:34:28.654Z,62.95
2022-11-24T08:35:28.647Z,63.40
2022-11-24T08:36:28.614Z,63.40
2022-11-24T08:37:28.691Z,64.12
2022-11-24T08:38:28.670Z,64.32
2022-11-24T08:39:28.639Z,64.32
2022-11-24T08:40:28.704Z,64.57
2022-11-24T08:41:28.651Z,64.63
2022-11-24T08:42:28.707Z,64.74
2022-11-24T08:43:28.630Z,64.74
2022-11-24T08:44:28.706Z,64.81
2022-11-24T08:45:30.635Z,65.22
2022-11-24T08:46:28.787Z,65.50
2022-11-24T08:47:28.693Z,65.60
2022-11-24T08:48:28.661Z,65.90
2022-11-24T08:49:28.646Z,65.90
2022-11-24T08:50:28.711Z,66.20
2022-11-24T08:53:28.677Z,66.59
2022-11-24T08:54:28.702Z,66.26
2022-11-24T08:56:28.747Z,66.50
2022-11-24T08:57:28.790Z,66.59
2022-11-24T08:58:28.713Z,66.81
2022-11-24T08:59:28.823Z,66.11
2022-11-24T09:00:28.700Z,65.97
2022-11-24T09:02:28.827Z,66.33
2022-11-24T09:03:28.728Z,66.33
2022-11-24T09:04:28.711Z,66.21
2022-11-24T09:05:51.125Z,66.09
2022-11-24T09:06:28.703Z,66.04
2022-11-24T09:07:28.795Z,65.95
2022-11-24T09:08:28.764Z,65.95
2022-11-24T09:09:28.727Z,65.71
2022-11-24T09:10:28.775Z,65.84
2022-11-24T09:11:28.706Z,65.89
2022-11-24T09:13:28.769Z,65.47
2022-11-24T09:14:28.745Z,65.47
2022-11-24T09:15:28.787Z,65.74
2022-11-24T09:16:28.822Z,65.95
2022-11-24T09:17:28.735Z,65.88
2022-11-24T09:18:30.379Z,66.18
2022-11-24T09:19:28.737Z,66.61
2022-11-24T09:20:28.772Z,66.59
2022-11-24T09:21:28.769Z,66.26
2022-11-24T09:22:28.768Z,66.58
2022-11-24T09:23:28.782Z,66.73
2022-11-24T09:24:28.786Z,66.73
2022-11-24T09:25:28.784Z,66.59
2022-11-24T09:26:28.726Z,66.59
2022-11-24T09:27:28.770Z,66.70
2022-11-24T09:28:28.786Z,66.58
2022-11-24T09:29:28.790Z,66.58
2022-11-24T09:30:28.977Z,66.56
2022-11-24T09:31:28.929Z,66.35
2022-11-24T09:32:28.777Z,66.29
2022-11-24T09:33:28.789Z,66.11
2022-11-24T09:34:28.744Z,65.96
2022-11-24T09:35:28.761Z,64.93
2022-11-24T09:36:28.757Z,64.43
2022-11-24T09:37:32.518Z,61.74
2022-11-24T09:38:28.838Z,61.52
2022-11-24T09:39:28.758Z,61.52
2022-11-24T09:40:28.822Z,60.89
2022-11-24T09:41:28.794Z,60.48
2022-11-24T09:42:28.763Z,60.48
2022-11-24T09:43:28.815Z,60.24
2022-11-24T09:44:28.812Z,60.24
2022-11-24T09:45:56.986Z,60.51
2022-11-24T09:46:28.894Z,59.14
2022-11-24T09:47:28.806Z,57.19
2022-11-24T09:48:28.846Z,55.48
2022-11-24T09:49:28.799Z,55.48
2022-11-24T09:50:28.786Z,52.86
2022-11-24T09:51:28.813Z,49.76
2022-11-24T09:52:28.799Z,45.67
2022-11-24T09:53:28.896Z,43.88
2022-11-24T09:54:28.803Z,43.88
2022-11-24T09:55:28.810Z,43.75
2022-11-24T09:56:28.894Z,43.34
2022-11-24T09:57:34.156Z,43.93
2022-11-24T09:58:28.847Z,44.65
2022-11-24T09:59:28.872Z,45.57
2022-11-24T10:00:28.845Z,45.57
2022-11-24T10:01:28.952Z,46.67
2022-11-24T10:02:28.858Z,47.68
2022-11-24T10:03:28.910Z,48.14
2022-11-24T10:04:28.834Z,48.14
2022-11-24T10:05:28.818Z,48.31
2022-11-24T10:06:28.898Z,48.63
2022-11-24T10:07:28.963Z,48.74
2022-11-24T10:08:28.918Z,47.61
2022-11-24T10:09:28.851Z,47.61
2022-11-24T10:10:28.908Z,48.46
2022-11-24T10:11:28.885Z,48.58
2022-11-24T10:12:28.894Z,48.58
2022-11-24T10:13:28.860Z,49.12
2022-11-24T10:14:28.841Z,49.12
2022-11-24T10:15:28.986Z,49.60
2022-11-24T10:16:28.962Z,50.05
2022-11-24T10:17:28.890Z,50.15
2022-11-24T10:18:28.907Z,50.15
2022-11-24T10:19:36.268Z,50.43
2022-11-24T10:20:28.875Z,51.11
2022-11-24T10:21:28.903Z,50.75
2022-11-24T10:22:28.881Z,50.75
2022-11-24T10:23:28.876Z,51.21
2022-11-24T10:24:28.937Z,51.54
2022-11-24T10:25:28.892Z,51.10
2022-11-24T10:26:28.931Z,50.93
2022-11-24T10:27:28.941Z,50.70
2022-11-24T10:28:28.906Z,50.57
2022-11-24T10:29:28.937Z,50.94
2022-11-24T10:30:28.896Z,50.97
2022-11-24T10:31:29.003Z,50.86
2022-11-24T10:32:28.903Z,51.12
2022-11-24T10:33:30.963Z,51.12
2022-11-24T10:34:28.947Z,50.85
2022-11-24T10:35:28.923Z,50.67
2022-11-24T10:36:28.910Z,50.57
2022-11-24T10:37:28.915Z,50.57
2022-11-24T10:38:28.964Z,51.38
2022-11-24T10:39:29.017Z,51.76
2022-11-24T10:40:55.796Z,52.10
2022-11-24T10:41:28.919Z,52.10
2022-11-24T10:42:28.947Z,51.32
2022-11-24T10:43:28.988Z,52.19
2022-11-24T10:45:28.991Z,52.27
2022-11-24T10:46:29.547Z,51.73
2022-11-24T10:47:29.019Z,51.38
2022-11-24T10:48:28.956Z,51.38
2022-11-24T10:49:28.948Z,50.77
2022-11-24T10:50:28.992Z,50.59
2022-11-24T10:51:28.947Z,50.12
2022-11-24T10:52:29.026Z,50.30
2022-11-24T10:53:28.962Z,50.30
2022-11-24T10:54:28.979Z,50.96
2022-11-24T10:55:29.034Z,51.79
2022-11-24T10:56:29.012Z,51.79
2022-11-24T10:57:29.042Z,52.10
2022-11-24T10:58:32.953Z,52.04
2022-11-24T10:59:28.969Z,51.97
2022-11-24T11:00:29.018Z,52.19
2022-11-24T11:01:29.024Z,52.45
2022-11-24T11:02:29.229Z,52.46
2022-11-24T11:03:28.979Z,52.79
2022-11-24T11:04:29.032Z,53.17
2022-11-24T11:05:29.014Z,52.73
2022-11-24T11:06:29.036Z,52.79
2022-11-24T11:07:29.059Z,52.75
2022-11-24T11:08:29.030Z,52.76
2022-11-24T11:09:28.992Z,52.76
2022-11-24T11:10:29.074Z,53.08
2022-11-24T11:11:29.025Z,53.08
2022-11-24T11:12:43.505Z,53.84
2022-11-24T11:13:29.011Z,53.38
2022-11-24T11:14:29.017Z,54.21
2022-11-24T11:15:29.200Z,54.23
2022-11-24T11:17:29.048Z,54.82
2022-11-24T11:18:29.067Z,54.71
2022-11-24T11:19:47.942Z,54.71
2022-11-24T11:21:29.065Z,56.09
2022-11-24T11:22:29.043Z,56.48
2022-11-24T11:23:29.133Z,56.60
2022-11-24T11:25:29.089Z,56.67
2022-11-24T11:26:29.071Z,56.81
2022-11-24T11:27:29.059Z,57.06
2022-11-24T11:28:29.100Z,57.33
2022-11-24T11:31:29.162Z,57.68
2022-11-24T11:34:30.445Z,57.72
2022-11-24T11:35:29.061Z,57.72
2022-11-24T11:36:29.156Z,58.36
2022-11-24T11:37:29.058Z,58.36
2022-11-24T11:38:29.137Z,58.98
2022-11-24T11:40:29.063Z,58.64
2022-11-24T11:41:29.237Z,59.50
2022-11-24T11:42:53.816Z,59.50
2022-11-24T11:43:29.091Z,59.57
2022-11-24T11:44:29.112Z,59.31
2022-11-24T11:45:29.179Z,59.45
2022-11-24T11:46:29.297Z,59.78
2022-11-24T11:47:29.152Z,59.80
2022-11-24T11:48:31.427Z,59.66
2022-11-24T11:49:29.135Z,59.60
2022-11-24T11:50:29.154Z,59.60
2022-11-24T11:51:29.304Z,59.15
2022-11-24T11:52:29.155Z,59.27
2022-11-24T11:53:29.096Z,59.27
2022-11-24T11:54:29.187Z,59.18
2022-11-24T11:55:29.109Z,59.18
2022-11-24T11:56:29.130Z,58.84
2022-11-24T11:57:29.119Z,58.84
2022-11-24T11:58:29.163Z,58.61
2022-11-24T11:59:29.147Z,58.72
2022-11-24T12:00:29.125Z,59.15
2022-11-24T12:01:29.152Z,58.79
2022-11-24T12:02:29.307Z,58.70
2022-11-24T12:03:29.264Z,58.78
2022-11-24T12:04:29.168Z,58.57
2022-11-24T12:05:29.131Z,58.57
2022-11-24T12:06:29.188Z,58.68
2022-11-24T12:07:29.314Z,58.68
2022-11-24T12:08:29.145Z,58.84
2022-11-24T12:09:29.176Z,58.83
2022-11-24T12:10:29.144Z,58.83
2022-11-24T12:11:29.243Z,57.58
2022-11-24T12:12:29.213Z,57.26
2022-11-24T12:13:29.177Z,57.26
2022-11-24T12:14:29.212Z,57.21
2022-11-24T12:15:29.157Z,56.40
2022-11-24T12:16:29.277Z,56.71
2022-11-24T12:17:29.164Z,56.71
2022-11-24T12:18:55.248Z,57.22
2022-11-24T12:19:29.240Z,56.59
2022-11-24T12:20:29.194Z,56.59
2022-11-24T12:21:29.362Z,55.94
2022-11-24T12:22:29.201Z,55.58
2022-11-24T12:23:29.188Z,55.21
2022-11-24T12:24:29.291Z,54.24
2022-11-24T12:26:29.250Z,54.02
2022-11-24T12:27:29.203Z,54.02
2022-11-24T12:28:29.243Z,54.63
2022-11-24T12:29:29.279Z,55.05
2022-11-24T12:30:29.205Z,55.05
2022-11-24T12:31:29.328Z,53.73
2022-11-24T12:32:29.210Z,53.97
2022-11-24T12:33:29.216Z,53.59
2022-11-24T12:34:29.274Z,54.17
2022-11-24T12:35:29.258Z,53.33
2022-11-24T12:36:29.240Z,53.69
2022-11-24T12:37:29.206Z,53.69
2022-11-24T12:38:29.269Z,54.37
2022-11-24T12:39:29.287Z,54.23
2022-11-24T12:40:29.260Z,54.01
2022-11-24T12:41:41.721Z,53.31
2022-11-24T12:42:29.219Z,53.70
2022-11-24T12:43:29.249Z,53.55
2022-11-24T12:45:29.274Z,53.31
2022-11-24T12:46:29.320Z,53.80
2022-11-24T12:47:29.275Z,52.95
2022-11-24T12:49:29.264Z,53.04
2022-11-24T12:51:29.279Z,52.34
2022-11-24T12:53:29.289Z,52.34
2022-11-24T12:54:29.317Z,52.17
2022-11-24T12:55:29.302Z,51.98
2022-11-24T12:56:29.256Z,51.98
2022-11-24T12:57:29.332Z,52.35
2022-11-24T12:58:29.287Z,52.14
2022-11-24T12:59:29.308Z,52.54
2022-11-24T13:01:29.429Z,51.31
2022-11-24T13:02:29.463Z,51.55
2022-11-24T13:03:29.307Z,51.55
2022-11-24T13:05:29.352Z,51.55
2022-11-24T13:06:29.353Z,52.01
2022-11-24T13:07:29.417Z,51.31
2022-11-24T13:08:29.284Z,51.31
2022-11-24T13:10:54.252Z,51.29
2022-11-24T13:11:29.292Z,51.29
2022-11-24T13:12:29.381Z,51.70
2022-11-24T13:13:29.341Z,51.24
2022-11-24T13:14:29.301Z,51.79
2022-11-24T13:15:45.761Z,51.26
2022-11-24T13:16:44.478Z,51.52
2022-11-24T13:17:35.125Z,51.51
2022-11-24T13:18:29.378Z,51.39
2022-11-24T13:19:29.364Z,50.06
2022-11-24T13:20:29.391Z,50.30
2022-11-24T13:21:29.341Z,50.63
2022-11-24T13:22:29.363Z,50.83
2022-11-24T13:23:29.336Z,51.21
2022-11-24T13:24:29.325Z,51.21
2022-11-24T13:25:29.372Z,51.24
2022-11-24T13:26:29.349Z,51.24
2022-11-24T13:27:29.325Z,51.73
2022-11-24T13:28:53.897Z,52.08
2022-11-24T13:29:29.364Z,52.08
2022-11-24T13:30:29.432Z,51.88
2022-11-24T13:31:29.455Z,52.03
2022-11-24T13:32:29.378Z,52.02
2022-11-24T13:33:29.364Z,51.18
2022-11-24T13:34:29.354Z,51.09
2022-11-24T13:35:29.399Z,51.20
2022-11-24T13:36:29.424Z,51.30
2022-11-24T13:37:34.896Z,51.30
2022-11-24T13:38:29.347Z,51.58
2022-11-24T13:39:29.351Z,51.78
2022-11-24T13:40:29.444Z,51.79
2022-11-24T13:41:29.420Z,52.21
2022-11-24T13:42:43.366Z,52.31
2022-11-24T13:43:29.409Z,52.31
2022-11-24T13:44:29.457Z,51.87
2022-11-24T13:45:29.437Z,51.87
2022-11-24T13:46:29.424Z,51.77
2022-11-24T13:47:29.484Z,51.89
2022-11-24T13:48:29.435Z,51.89
2022-11-24T13:49:29.391Z,51.98
2022-11-24T13:50:29.476Z,52.25
2022-11-24T13:51:29.394Z,52.25
2022-11-24T13:52:29.414Z,52.14
2022-11-24T13:53:29.427Z,52.69
2022-11-24T13:54:29.401Z,52.62
2022-11-24T13:55:29.470Z,51.64
2022-11-24T13:56:29.412Z,51.64
2022-11-24T13:57:29.458Z,51.42
2022-11-24T13:58:29.470Z,51.59
2022-11-24T13:59:29.448Z,51.59
2022-11-24T14:00:29.461Z,51.40
2022-11-24T14:01:29.610Z,51.14
2022-11-24T14:02:29.528Z,51.20
2022-11-24T14:03:29.424Z,51.20
2022-11-24T14:05:29.513Z,51.44
2022-11-24T14:06:29.416Z,51.44
2022-11-24T14:07:29.514Z,51.17
2022-11-24T14:08:29.498Z,51.28
2022-11-24T14:09:29.494Z,51.26
2022-11-24T14:10:29.494Z,51.47
2022-11-24T14:11:29.515Z,51.52
2022-11-24T14:12:29.473Z,51.52
2022-11-24T14:13:29.534Z,51.39
2022-11-24T14:14:29.457Z,51.39
2022-11-24T14:15:29.484Z,50.47
2022-11-24T14:16:29.509Z,50.47
2022-11-24T14:17:29.453Z,50.74
2022-11-24T14:19:32.254Z,50.45
2022-11-24T14:20:29.519Z,50.78
2022-11-24T14:23:29.567Z,50.63
2022-11-24T14:24:29.498Z,51.23
2022-11-24T14:25:29.520Z,51.23
2022-11-24T14:26:29.520Z,51.40
2022-11-24T14:27:29.505Z,51.54
2022-11-24T14:28:29.586Z,51.61
2022-11-24T14:29:29.492Z,51.61
2022-11-24T14:30:29.490Z,51.36
2022-11-24T14:31:29.598Z,51.10
2022-11-24T14:32:29.559Z,51.33
2022-11-24T14:33:29.530Z,51.42
2022-11-24T14:35:29.682Z,51.36
2022-11-24T14:36:29.561Z,51.15
2022-11-24T14:37:29.537Z,51.21
2022-11-24T14:38:29.582Z,51.11